Rome, Georgia
Current Conditions -  °F | °C
As of 1:53 PM on Thursday 30 Oct 2014 (Local Time) from KRMG Reporting Station
Clear Clear  
Wind Chill: 18°   Ceiling: Unl
Heat Index: 18°   Visibility: 10mi
Dew Point:   Wind: 8mph
Humidity: 40%   Direction: 10°N
Pressure: 30.05"   Gusts: NA
Location:  34.25°N, 85.17°W
Report Text: KRMG 301753Z AUTO 01007KT 10SM CLR 18/04 A3005 RMK AO2 SLP172 T01780039 10183 20022 58023
Loading
Personal Weather Stations






























Interactive Weather Map New forecast layout! Learn more

10-Day Weather Forecast

Advertisements
Track Severe Weather on mobile